sensor_id;sensor_type;location;lat;lon;timestamp;P1;durP1;ratioP1;P2;durP2;ratioP2
61250;SDS011;47126;47.508;8.590;2022-10-22T00:01:48;8.02;;;3.92;;
61250;SDS011;47126;47.508;8.590;2022-10-22T00:04:13;9.10;;;4.55;;
61250;SDS011;47126;47.508;8.590;2022-10-22T00:06:39;9.15;;;4.00;;
61250;SDS011;47126;47.508;8.590;2022-10-22T00:09:08;8.77;;;4.45;;
61250;SDS011;47126;47.508;8.590;2022-10-22T00:11:34;12.35;;;4.57;;
61250;SDS011;47126;47.508;8.590;2022-10-22T00:14:00;13.90;;;5.18;;
61250;SDS011;47126;47.508;8.590;2022-10-22T00:16:26;12.15;;;3.97;;
61250;SDS011;47126;47.508;8.590;2022-10-22T00:18:52;9.20;;;3.35;;
61250;SDS011;47126;47.508;8.590;2022-10-22T00:21:18;6.65;;;3.85;;
61250;SDS011;47126;47.508;8.590;2022-10-22T00:23:44;11.30;;;3.80;;
61250;SDS011;47126;47.508;8.590;2022-10-22T00:26:11;10.90;;;3.90;;
61250;SDS011;47126;47.508;8.590;2022-10-22T00:28:37;7.00;;;3.70;;
61250;SDS011;47126;47.508;8.590;2022-10-22T00:31:03;6.90;;;3.15;;
61250;SDS011;47126;47.508;8.590;2022-10-22T00:33:30;4.55;;;2.80;;
61250;SDS011;47126;47.508;8.590;2022-10-22T00:35:56;9.45;;;3.22;;
61250;SDS011;47126;47.508;8.590;2022-10-22T00:38:22;6.38;;;2.92;;
61250;SDS011;47126;47.508;8.590;2022-10-22T00:40:48;5.75;;;3.15;;
61250;SDS011;47126;47.508;8.590;2022-10-22T00:43:15;6.65;;;3.13;;
61250;SDS011;47126;47.508;8.590;2022-10-22T00:45:42;8.98;;;3.45;;
61250;SDS011;47126;47.508;8.590;2022-10-22T00:50:52;6.97;;;3.22;;
61250;SDS011;47126;47.508;8.590;2022-10-22T00:53:42;9.98;;;3.30;;
61250;SDS011;47126;47.508;8.590;2022-10-22T00:56:06;9.70;;;3.50;;
61250;SDS011;47126;47.508;8.590;2022-10-22T00:58:34;8.23;;;3.22;;
61250;SDS011;47126;47.508;8.590;2022-10-22T01:01:01;7.28;;;3.30;;
61250;SDS011;47126;47.508;8.590;2022-10-22T01:03:28;6.80;;;3.13;;
61250;SDS011;47126;47.508;8.590;2022-10-22T01:05:57;7.18;;;2.80;;
61250;SDS011;47126;47.508;8.590;2022-10-22T01:10:55;6.15;;;2.88;;
61250;SDS011;47126;47.508;8.590;2022-10-22T01:16:11;6.13;;;2.58;;
61250;SDS011;47126;47.508;8.590;2022-10-22T01:18:53;9.88;;;3.05;;
61250;SDS011;47126;47.508;8.590;2022-10-22T01:21:25;6.95;;;3.70;;
61250;SDS011;47126;47.508;8.590;2022-10-22T01:29:18;4.25;;;1.83;;
61250;SDS011;47126;47.508;8.590;2022-10-22T01:31:46;6.70;;;2.15;;
61250;SDS011;47126;47.508;8.590;2022-10-22T01:34:15;12.85;;;2.83;;
61250;SDS011;47126;47.508;8.590;2022-10-22T01:36:42;6.03;;;2.95;;
61250;SDS011;47126;47.508;8.590;2022-10-22T01:39:08;8.93;;;2.90;;
61250;SDS011;47126;47.508;8.590;2022-10-22T01:41:35;7.45;;;3.08;;
61250;SDS011;47126;47.508;8.590;2022-10-22T01:44:03;9.60;;;3.33;;
61250;SDS011;47126;47.508;8.590;2022-10-22T01:46:29;7.05;;;3.85;;
61250;SDS011;47126;47.508;8.590;2022-10-22T01:51:54;9.48;;;4.22;;
61250;SDS011;47126;47.508;8.590;2022-10-22T01:54:34;8.05;;;3.92;;
61250;SDS011;47126;47.508;8.590;2022-10-22T01:57:22;7.90;;;3.63;;
61250;SDS011;47126;47.508;8.590;2022-10-22T02:00:00;13.13;;;4.70;;
61250;SDS011;47126;47.508;8.590;2022-10-22T02:02:35;9.45;;;3.20;;
61250;SDS011;47126;47.508;8.590;2022-10-22T02:07:33;6.82;;;3.30;;
61250;SDS011;47126;47.508;8.590;2022-10-22T02:10:00;9.60;;;3.88;;
61250;SDS011;47126;47.508;8.590;2022-10-22T02:12:27;9.55;;;3.58;;
61250;SDS011;47126;47.508;8.590;2022-10-22T02:14:54;6.18;;;3.03;;
61250;SDS011;47126;47.508;8.590;2022-10-22T02:17:20;7.47;;;3.90;;
61250;SDS011;47126;47.508;8.590;2022-10-22T02:20:06;11.43;;;3.97;;
61250;SDS011;47126;47.508;8.590;2022-10-22T02:22:35;14.02;;;3.80;;
61250;SDS011;47126;47.508;8.590;2022-10-22T02:25:01;13.18;;;4.38;;
61250;SDS011;47126;47.508;8.590;2022-10-22T02:27:29;5.85;;;3.67;;
61250;SDS011;47126;47.508;8.590;2022-10-22T02:29:57;8.15;;;3.65;;
61250;SDS011;47126;47.508;8.590;2022-10-22T02:32:25;12.15;;;3.95;;
61250;SDS011;47126;47.508;8.590;2022-10-22T02:34:53;12.02;;;4.18;;
61250;SDS011;47126;47.508;8.590;2022-10-22T02:37:20;10.15;;;4.28;;
61250;SDS011;47126;47.508;8.590;2022-10-22T02:39:46;14.00;;;4.38;;
61250;SDS011;47126;47.508;8.590;2022-10-22T02:42:13;8.18;;;4.00;;
61250;SDS011;47126;47.508;8.590;2022-10-22T02:44:39;11.25;;;4.38;;
61250;SDS011;47126;47.508;8.590;2022-10-22T02:47:05;10.27;;;5.03;;
61250;SDS011;47126;47.508;8.590;2022-10-22T02:49:31;12.13;;;4.70;;
61250;SDS011;47126;47.508;8.590;2022-10-22T02:51:57;6.97;;;4.40;;
61250;SDS011;47126;47.508;8.590;2022-10-22T02:54:23;9.48;;;4.55;;
61250;SDS011;47126;47.508;8.590;2022-10-22T02:56:49;8.90;;;3.45;;
61250;SDS011;47126;47.508;8.590;2022-10-22T02:59:15;16.05;;;5.15;;
61250;SDS011;47126;47.508;8.590;2022-10-22T03:01:41;8.52;;;3.92;;
61250;SDS011;47126;47.508;8.590;2022-10-22T03:04:07;12.15;;;4.80;;
61250;SDS011;47126;47.508;8.590;2022-10-22T03:06:33;9.75;;;4.63;;
61250;SDS011;47126;47.508;8.590;2022-10-22T03:08:59;13.07;;;4.50;;
61250;SDS011;47126;47.508;8.590;2022-10-22T03:11:25;8.70;;;3.92;;
61250;SDS011;47126;47.508;8.590;2022-10-22T03:13:51;9.95;;;4.43;;
61250;SDS011;47126;47.508;8.590;2022-10-22T03:16:17;10.43;;;4.13;;
61250;SDS011;47126;47.508;8.590;2022-10-22T03:18:43;7.85;;;4.00;;
61250;SDS011;47126;47.508;8.590;2022-10-22T03:21:12;11.98;;;3.83;;
61250;SDS011;47126;47.508;8.590;2022-10-22T03:23:39;8.05;;;3.97;;
61250;SDS011;47126;47.508;8.590;2022-10-22T03:26:07;13.70;;;4.22;;
61250;SDS011;47126;47.508;8.590;2022-10-22T03:28:34;7.88;;;4.05;;
61250;SDS011;47126;47.508;8.590;2022-10-22T03:31:00;10.48;;;3.92;;
61250;SDS011;47126;47.508;8.590;2022-10-22T03:33:26;8.10;;;4.00;;
61250;SDS011;47126;47.508;8.590;2022-10-22T03:35:52;12.18;;;4.65;;
61250;SDS011;47126;47.508;8.590;2022-10-22T03:38:18;7.43;;;4.03;;
61250;SDS011;47126;47.508;8.590;2022-10-22T03:40:44;7.03;;;4.25;;
61250;SDS011;47126;47.508;8.590;2022-10-22T03:43:11;7.25;;;3.97;;
61250;SDS011;47126;47.508;8.590;2022-10-22T03:45:37;8.50;;;4.45;;
61250;SDS011;47126;47.508;8.590;2022-10-22T03:48:03;12.85;;;4.53;;
61250;SDS011;47126;47.508;8.590;2022-10-22T03:50:29;10.40;;;4.72;;
61250;SDS011;47126;47.508;8.590;2022-10-22T03:52:55;11.57;;;4.80;;
61250;SDS011;47126;47.508;8.590;2022-10-22T03:55:22;10.60;;;5.35;;
61250;SDS011;47126;47.508;8.590;2022-10-22T03:57:48;12.98;;;5.70;;
61250;SDS011;47126;47.508;8.590;2022-10-22T04:00:14;9.52;;;5.50;;
61250;SDS011;47126;47.508;8.590;2022-10-22T04:02:40;11.65;;;5.15;;
61250;SDS011;47126;47.508;8.590;2022-10-22T04:05:06;11.13;;;5.05;;
61250;SDS011;47126;47.508;8.590;2022-10-22T04:07:32;13.68;;;6.25;;
61250;SDS011;47126;47.508;8.590;2022-10-22T04:09:58;17.35;;;5.68;;
61250;SDS011;47126;47.508;8.590;2022-10-22T04:12:24;10.70;;;5.97;;
61250;SDS011;47126;47.508;8.590;2022-10-22T04:14:50;10.38;;;6.63;;
61250;SDS011;47126;47.508;8.590;2022-10-22T04:17:16;11.05;;;5.75;;
61250;SDS011;47126;47.508;8.590;2022-10-22T04:19:42;13.10;;;5.72;;
61250;SDS011;47126;47.508;8.590;2022-10-22T04:22:08;11.57;;;6.43;;
61250;SDS011;47126;47.508;8.590;2022-10-22T04:24:34;17.65;;;6.55;;
61250;SDS011;47126;47.508;8.590;2022-10-22T04:27:00;11.73;;;6.65;;
61250;SDS011;47126;47.508;8.590;2022-10-22T04:29:26;16.45;;;6.47;;
61250;SDS011;47126;47.508;8.590;2022-10-22T04:31:52;11.20;;;6.28;;
61250;SDS011;47126;47.508;8.590;2022-10-22T04:34:18;12.48;;;6.15;;
61250;SDS011;47126;47.508;8.590;2022-10-22T04:36:44;12.52;;;5.35;;
61250;SDS011;47126;47.508;8.590;2022-10-22T04:39:10;17.13;;;6.00;;
61250;SDS011;47126;47.508;8.590;2022-10-22T04:41:36;15.02;;;5.95;;
61250;SDS011;47126;47.508;8.590;2022-10-22T04:44:03;22.00;;;7.60;;
61250;SDS011;47126;47.508;8.590;2022-10-22T04:46:30;10.88;;;6.03;;
61250;SDS011;47126;47.508;8.590;2022-10-22T04:48:56;18.25;;;5.82;;
61250;SDS011;47126;47.508;8.590;2022-10-22T04:51:22;17.85;;;5.65;;
61250;SDS011;47126;47.508;8.590;2022-10-22T04:53:49;38.22;;;6.32;;
61250;SDS011;47126;47.508;8.590;2022-10-22T04:58:45;11.30;;;5.50;;
61250;SDS011;47126;47.508;8.590;2022-10-22T05:01:21;9.90;;;5.82;;
61250;SDS011;47126;47.508;8.590;2022-10-22T05:03:48;13.75;;;5.50;;
61250;SDS011;47126;47.508;8.590;2022-10-22T05:06:14;15.05;;;6.53;;
61250;SDS011;47126;47.508;8.590;2022-10-22T05:08:41;14.80;;;6.70;;
61250;SDS011;47126;47.508;8.590;2022-10-22T05:11:11;11.68;;;7.05;;
61250;SDS011;47126;47.508;8.590;2022-10-22T05:13:37;11.27;;;6.55;;
61250;SDS011;47126;47.508;8.590;2022-10-22T05:16:03;10.48;;;5.63;;
61250;SDS011;47126;47.508;8.590;2022-10-22T05:18:29;12.75;;;6.63;;
61250;SDS011;47126;47.508;8.590;2022-10-22T05:20:58;12.00;;;5.85;;
61250;SDS011;47126;47.508;8.590;2022-10-22T05:23:24;10.95;;;6.75;;
61250;SDS011;47126;47.508;8.590;2022-10-22T05:25:49;12.25;;;7.00;;
61250;SDS011;47126;47.508;8.590;2022-10-22T05:28:15;12.90;;;6.72;;
61250;SDS011;47126;47.508;8.590;2022-10-22T05:30:41;13.13;;;6.85;;
61250;SDS011;47126;47.508;8.590;2022-10-22T05:33:16;12.43;;;7.03;;
61250;SDS011;47126;47.508;8.590;2022-10-22T05:35:42;17.38;;;12.15;;
61250;SDS011;47126;47.508;8.590;2022-10-22T05:38:08;12.63;;;8.73;;
61250;SDS011;47126;47.508;8.590;2022-10-22T05:40:34;14.68;;;6.50;;
61250;SDS011;47126;47.508;8.590;2022-10-22T05:43:00;13.13;;;10.27;;
61250;SDS011;47126;47.508;8.590;2022-10-22T05:45:26;10.85;;;6.03;;
61250;SDS011;47126;47.508;8.590;2022-10-22T05:47:52;14.90;;;10.77;;
61250;SDS011;47126;47.508;8.590;2022-10-22T05:50:18;30.35;;;27.15;;
61250;SDS011;47126;47.508;8.590;2022-10-22T05:52:44;19.60;;;17.60;;
61250;SDS011;47126;47.508;8.590;2022-10-22T05:55:10;17.48;;;12.70;;
61250;SDS011;47126;47.508;8.590;2022-10-22T05:57:36;17.13;;;13.55;;
61250;SDS011;47126;47.508;8.590;2022-10-22T06:00:02;12.65;;;10.52;;
61250;SDS011;47126;47.508;8.590;2022-10-22T06:02:28;15.15;;;12.30;;
61250;SDS011;47126;47.508;8.590;2022-10-22T06:04:54;12.20;;;8.95;;
61250;SDS011;47126;47.508;8.590;2022-10-22T06:07:20;11.85;;;8.80;;
61250;SDS011;47126;47.508;8.590;2022-10-22T06:09:46;8.25;;;5.45;;
61250;SDS011;47126;47.508;8.590;2022-10-22T06:12:14;10.40;;;6.63;;
61250;SDS011;47126;47.508;8.590;2022-10-22T06:14:40;11.80;;;7.97;;
61250;SDS011;47126;47.508;8.590;2022-10-22T06:17:06;11.57;;;8.38;;
61250;SDS011;47126;47.508;8.590;2022-10-22T06:19:32;12.05;;;6.97;;
61250;SDS011;47126;47.508;8.590;2022-10-22T06:21:58;10.60;;;6.80;;
61250;SDS011;47126;47.508;8.590;2022-10-22T06:24:24;11.07;;;5.80;;
61250;SDS011;47126;47.508;8.590;2022-10-22T06:26:50;9.98;;;5.78;;
61250;SDS011;47126;47.508;8.590;2022-10-22T06:29:17;11.90;;;5.68;;
61250;SDS011;47126;47.508;8.590;2022-10-22T06:31:43;11.00;;;6.22;;
61250;SDS011;47126;47.508;8.590;2022-10-22T06:34:10;10.30;;;5.72;;
61250;SDS011;47126;47.508;8.590;2022-10-22T06:36:36;20.17;;;6.25;;
61250;SDS011;47126;47.508;8.590;2022-10-22T06:39:02;13.18;;;6.95;;
61250;SDS011;47126;47.508;8.590;2022-10-22T06:41:28;13.10;;;5.20;;
61250;SDS011;47126;47.508;8.590;2022-10-22T06:43:55;18.48;;;5.35;;
61250;SDS011;47126;47.508;8.590;2022-10-22T06:46:21;8.38;;;5.15;;
61250;SDS011;47126;47.508;8.590;2022-10-22T06:48:48;10.05;;;4.10;;
61250;SDS011;47126;47.508;8.590;2022-10-22T06:51:15;11.32;;;6.95;;
61250;SDS011;47126;47.508;8.590;2022-10-22T06:53:41;7.35;;;5.30;;
61250;SDS011;47126;47.508;8.590;2022-10-22T06:56:07;8.15;;;5.32;;
61250;SDS011;47126;47.508;8.590;2022-10-22T06:58:33;7.47;;;5.18;;
61250;SDS011;47126;47.508;8.590;2022-10-22T07:01:00;11.93;;;9.98;;
61250;SDS011;47126;47.508;8.590;2022-10-22T07:03:26;10.20;;;8.65;;
61250;SDS011;47126;47.508;8.590;2022-10-22T07:05:52;6.55;;;2.88;;
61250;SDS011;47126;47.508;8.590;2022-10-22T07:08:18;6.45;;;4.90;;
61250;SDS011;47126;47.508;8.590;2022-10-22T07:10:44;6.45;;;3.90;;
61250;SDS011;47126;47.508;8.590;2022-10-22T07:13:10;4.28;;;2.80;;
61250;SDS011;47126;47.508;8.590;2022-10-22T07:15:36;7.25;;;5.88;;
61250;SDS011;47126;47.508;8.590;2022-10-22T07:18:02;8.38;;;5.85;;
61250;SDS011;47126;47.508;8.590;2022-10-22T07:20:28;3.65;;;2.10;;
61250;SDS011;47126;47.508;8.590;2022-10-22T07:22:54;2.95;;;2.10;;
61250;SDS011;47126;47.508;8.590;2022-10-22T07:25:20;4.10;;;2.20;;
61250;SDS011;47126;47.508;8.590;2022-10-22T07:27:46;4.25;;;1.90;;
61250;SDS011;47126;47.508;8.590;2022-10-22T07:30:12;5.25;;;1.80;;
61250;SDS011;47126;47.508;8.590;2022-10-22T07:32:38;3.20;;;1.83;;
61250;SDS011;47126;47.508;8.590;2022-10-22T07:35:04;3.88;;;1.98;;
61250;SDS011;47126;47.508;8.590;2022-10-22T07:37:30;3.10;;;1.77;;
61250;SDS011;47126;47.508;8.590;2022-10-22T07:39:56;2.92;;;2.00;;
61250;SDS011;47126;47.508;8.590;2022-10-22T07:42:22;7.82;;;1.65;;
61250;SDS011;47126;47.508;8.590;2022-10-22T07:44:48;2.60;;;1.20;;
61250;SDS011;47126;47.508;8.590;2022-10-22T07:47:14;2.80;;;1.48;;
61250;SDS011;47126;47.508;8.590;2022-10-22T07:49:40;5.70;;;1.25;;
61250;SDS011;47126;47.508;8.590;2022-10-22T07:52:06;7.68;;;2.42;;
61250;SDS011;47126;47.508;8.590;2022-10-22T07:54:32;1.20;;;0.90;;
61250;SDS011;47126;47.508;8.590;2022-10-22T07:56:58;1.80;;;1.13;;
61250;SDS011;47126;47.508;8.590;2022-10-22T07:59:24;9.50;;;3.22;;
61250;SDS011;47126;47.508;8.590;2022-10-22T08:01:50;3.40;;;2.63;;
61250;SDS011;47126;47.508;8.590;2022-10-22T08:04:16;5.88;;;3.28;;
61250;SDS011;47126;47.508;8.590;2022-10-22T08:06:42;3.40;;;2.45;;
61250;SDS011;47126;47.508;8.590;2022-10-22T08:09:07;2.00;;;1.50;;
61250;SDS011;47126;47.508;8.590;2022-10-22T08:11:33;3.33;;;0.93;;
61250;SDS011;47126;47.508;8.590;2022-10-22T08:13:59;3.30;;;1.30;;
61250;SDS011;47126;47.508;8.590;2022-10-22T08:16:25;1.40;;;0.88;;
61250;SDS011;47126;47.508;8.590;2022-10-22T08:18:51;4.03;;;1.30;;
61250;SDS011;47126;47.508;8.590;2022-10-22T08:21:18;6.85;;;1.98;;
61250;SDS011;47126;47.508;8.590;2022-10-22T08:23:44;3.53;;;0.90;;
61250;SDS011;47126;47.508;8.590;2022-10-22T08:26:10;4.00;;;1.00;;
61250;SDS011;47126;47.508;8.590;2022-10-22T08:28:36;2.58;;;1.05;;
61250;SDS011;47126;47.508;8.590;2022-10-22T08:31:03;4.82;;;1.30;;
61250;SDS011;47126;47.508;8.590;2022-10-22T08:33:29;2.28;;;0.95;;
61250;SDS011;47126;47.508;8.590;2022-10-22T08:35:55;1.65;;;1.10;;
61250;SDS011;47126;47.508;8.590;2022-10-22T08:38:21;7.00;;;1.10;;
61250;SDS011;47126;47.508;8.590;2022-10-22T08:40:55;5.07;;;1.20;;
61250;SDS011;47126;47.508;8.590;2022-10-22T08:43:29;1.83;;;1.30;;
61250;SDS011;47126;47.508;8.590;2022-10-22T08:50:55;2.60;;;1.50;;
61250;SDS011;47126;47.508;8.590;2022-10-22T08:56:11;3.28;;;1.13;;
61250;SDS011;47126;47.508;8.590;2022-10-22T08:58:39;1.98;;;1.20;;
61250;SDS011;47126;47.508;8.590;2022-10-22T09:01:12;4.63;;;1.20;;
61250;SDS011;47126;47.508;8.590;2022-10-22T09:06:08;6.22;;;1.10;;
61250;SDS011;47126;47.508;8.590;2022-10-22T09:08:36;1.50;;;0.75;;
61250;SDS011;47126;47.508;8.590;2022-10-22T09:11:05;3.00;;;0.90;;
61250;SDS011;47126;47.508;8.590;2022-10-22T09:13:32;4.38;;;1.00;;
61250;SDS011;47126;47.508;8.590;2022-10-22T09:16:00;1.00;;;0.75;;
61250;SDS011;47126;47.508;8.590;2022-10-22T09:18:35;2.00;;;0.63;;
61250;SDS011;47126;47.508;8.590;2022-10-22T09:23:52;1.80;;;0.90;;
61250;SDS011;47126;47.508;8.590;2022-10-22T09:26:20;1.30;;;0.90;;
61250;SDS011;47126;47.508;8.590;2022-10-22T09:28:50;1.67;;;0.93;;
61250;SDS011;47126;47.508;8.590;2022-10-22T09:31:16;4.30;;;0.85;;
61250;SDS011;47126;47.508;8.590;2022-10-22T09:33:43;1.98;;;0.85;;
61250;SDS011;47126;47.508;8.590;2022-10-22T09:36:14;3.20;;;0.77;;
61250;SDS011;47126;47.508;8.590;2022-10-22T09:38:47;4.43;;;0.70;;
61250;SDS011;47126;47.508;8.590;2022-10-22T09:41:13;2.78;;;0.80;;
61250;SDS011;47126;47.508;8.590;2022-10-22T09:43:39;1.45;;;0.70;;
61250;SDS011;47126;47.508;8.590;2022-10-22T09:46:07;2.05;;;0.70;;
61250;SDS011;47126;47.508;8.590;2022-10-22T09:48:37;1.25;;;0.85;;
61250;SDS011;47126;47.508;8.590;2022-10-22T09:53:35;1.77;;;0.88;;
61250;SDS011;47126;47.508;8.590;2022-10-22T09:58:27;2.92;;;0.85;;
61250;SDS011;47126;47.508;8.590;2022-10-22T10:00:57;2.15;;;0.73;;
61250;SDS011;47126;47.508;8.590;2022-10-22T10:03:25;1.17;;;0.70;;
61250;SDS011;47126;47.508;8.590;2022-10-22T10:05:52;4.85;;;0.80;;
61250;SDS011;47126;47.508;8.590;2022-10-22T10:08:19;1.85;;;0.80;;
61250;SDS011;47126;47.508;8.590;2022-10-22T10:10:49;1.25;;;0.70;;
61250;SDS011;47126;47.508;8.590;2022-10-22T10:16:14;3.38;;;0.70;;
61250;SDS011;47126;47.508;8.590;2022-10-22T10:18:50;2.15;;;0.70;;
61250;SDS011;47126;47.508;8.590;2022-10-22T10:26:15;1.77;;;0.70;;
61250;SDS011;47126;47.508;8.590;2022-10-22T10:28:50;1.08;;;0.60;;
61250;SDS011;47126;47.508;8.590;2022-10-22T10:31:25;3.25;;;0.75;;
61250;SDS011;47126;47.508;8.590;2022-10-22T10:38:56;1.40;;;0.80;;
61250;SDS011;47126;47.508;8.590;2022-10-22T10:49:22;2.60;;;0.75;;
61250;SDS011;47126;47.508;8.590;2022-10-22T10:51:52;1.77;;;0.70;;
61250;SDS011;47126;47.508;8.590;2022-10-22T10:56:52;1.10;;;0.73;;
61250;SDS011;47126;47.508;8.590;2022-10-22T11:02:08;4.43;;;0.77;;
61250;SDS011;47126;47.508;8.590;2022-10-22T11:07:05;2.30;;;0.80;;
61250;SDS011;47126;47.508;8.590;2022-10-22T11:09:36;2.28;;;0.60;;
61250;SDS011;47126;47.508;8.590;2022-10-22T11:12:49;5.15;;;0.90;;
61250;SDS011;47126;47.508;8.590;2022-10-22T11:15:06;1.50;;;0.70;;
61250;SDS011;47126;47.508;8.590;2022-10-22T11:17:41;3.20;;;0.80;;
61250;SDS011;47126;47.508;8.590;2022-10-22T11:20:30;3.13;;;0.77;;
61250;SDS011;47126;47.508;8.590;2022-10-22T11:25:28;3.65;;;1.00;;
61250;SDS011;47126;47.508;8.590;2022-10-22T11:30:22;4.40;;;0.70;;
61250;SDS011;47126;47.508;8.590;2022-10-22T11:32:52;2.20;;;0.95;;
61250;SDS011;47126;47.508;8.590;2022-10-22T11:35:21;5.15;;;0.80;;
61250;SDS011;47126;47.508;8.590;2022-10-22T11:37:48;3.55;;;0.80;;
61250;SDS011;47126;47.508;8.590;2022-10-22T11:40:17;1.60;;;0.90;;
61250;SDS011;47126;47.508;8.590;2022-10-22T11:42:55;2.78;;;1.00;;
61250;SDS011;47126;47.508;8.590;2022-10-22T11:47:58;3.97;;;0.90;;
61250;SDS011;47126;47.508;8.590;2022-10-22T11:51:27;2.28;;;0.98;;
61250;SDS011;47126;47.508;8.590;2022-10-22T11:55:57;3.83;;;0.90;;
61250;SDS011;47126;47.508;8.590;2022-10-22T12:00:53;3.63;;;1.08;;
61250;SDS011;47126;47.508;8.590;2022-10-22T12:16:23;2.83;;;1.00;;
61250;SDS011;47126;47.508;8.590;2022-10-22T12:18:52;1.20;;;0.70;;
61250;SDS011;47126;47.508;8.590;2022-10-22T12:23:45;4.93;;;1.00;;
61250;SDS011;47126;47.508;8.590;2022-10-22T12:26:22;2.55;;;0.80;;
61250;SDS011;47126;47.508;8.590;2022-10-22T12:28:48;2.22;;;0.95;;
61250;SDS011;47126;47.508;8.590;2022-10-22T12:31:14;1.63;;;0.88;;
61250;SDS011;47126;47.508;8.590;2022-10-22T12:33:41;1.60;;;0.93;;
61250;SDS011;47126;47.508;8.590;2022-10-22T12:36:13;2.03;;;0.80;;
61250;SDS011;47126;47.508;8.590;2022-10-22T12:38:39;2.88;;;0.80;;
61250;SDS011;47126;47.508;8.590;2022-10-22T12:41:11;2.53;;;0.93;;
61250;SDS011;47126;47.508;8.590;2022-10-22T12:43:37;2.60;;;1.00;;
61250;SDS011;47126;47.508;8.590;2022-10-22T12:46:10;1.33;;;0.90;;
61250;SDS011;47126;47.508;8.590;2022-10-22T12:48:38;11.80;;;1.27;;
61250;SDS011;47126;47.508;8.590;2022-10-22T12:51:05;5.25;;;1.00;;
61250;SDS011;47126;47.508;8.590;2022-10-22T12:53:37;1.23;;;0.98;;
61250;SDS011;47126;47.508;8.590;2022-10-22T12:56:09;2.28;;;0.90;;
61250;SDS011;47126;47.508;8.590;2022-10-22T12:58:37;1.17;;;0.50;;
61250;SDS011;47126;47.508;8.590;2022-10-22T13:01:04;2.35;;;0.70;;
61250;SDS011;47126;47.508;8.590;2022-10-22T13:03:34;3.33;;;1.00;;
61250;SDS011;47126;47.508;8.590;2022-10-22T13:11:22;6.75;;;2.08;;
61250;SDS011;47126;47.508;8.590;2022-10-22T13:13:47;1.55;;;0.63;;
61250;SDS011;47126;47.508;8.590;2022-10-22T13:18:40;1.23;;;0.80;;
61250;SDS011;47126;47.508;8.590;2022-10-22T13:21:21;1.98;;;0.70;;
61250;SDS011;47126;47.508;8.590;2022-10-22T13:23:51;3.65;;;0.80;;
61250;SDS011;47126;47.508;8.590;2022-10-22T13:26:18;2.47;;;0.63;;
61250;SDS011;47126;47.508;8.590;2022-10-22T13:28:51;1.83;;;0.63;;
61250;SDS011;47126;47.508;8.590;2022-10-22T13:31:18;4.38;;;0.68;;
61250;SDS011;47126;47.508;8.590;2022-10-22T13:33:46;1.73;;;0.63;;
61250;SDS011;47126;47.508;8.590;2022-10-22T13:36:16;1.80;;;0.70;;
61250;SDS011;47126;47.508;8.590;2022-10-22T13:38:43;2.63;;;0.63;;
61250;SDS011;47126;47.508;8.590;2022-10-22T13:41:25;2.33;;;0.95;;
61250;SDS011;47126;47.508;8.590;2022-10-22T13:43:52;2.35;;;0.60;;
61250;SDS011;47126;47.508;8.590;2022-10-22T13:46:18;3.38;;;0.70;;
61250;SDS011;47126;47.508;8.590;2022-10-22T13:48:44;11.73;;;0.95;;
61250;SDS011;47126;47.508;8.590;2022-10-22T13:51:18;4.65;;;1.02;;
61250;SDS011;47126;47.508;8.590;2022-10-22T13:53:45;2.95;;;0.77;;
61250;SDS011;47126;47.508;8.590;2022-10-22T13:56:12;2.45;;;1.02;;
61250;SDS011;47126;47.508;8.590;2022-10-22T13:58:39;1.40;;;1.00;;
61250;SDS011;47126;47.508;8.590;2022-10-22T14:01:08;3.90;;;1.10;;
61250;SDS011;47126;47.508;8.590;2022-10-22T14:03:36;4.43;;;1.10;;
61250;SDS011;47126;47.508;8.590;2022-10-22T14:06:02;5.88;;;0.90;;
61250;SDS011;47126;47.508;8.590;2022-10-22T14:08:28;14.77;;;1.52;;
61250;SDS011;47126;47.508;8.590;2022-10-22T14:10:54;0.70;;;0.60;;
61250;SDS011;47126;47.508;8.590;2022-10-22T14:13:20;7.60;;;1.38;;
61250;SDS011;47126;47.508;8.590;2022-10-22T14:15:47;1.20;;;0.68;;
61250;SDS011;47126;47.508;8.590;2022-10-22T14:18:19;2.00;;;0.77;;
61250;SDS011;47126;47.508;8.590;2022-10-22T14:20:50;3.03;;;1.00;;
61250;SDS011;47126;47.508;8.590;2022-10-22T14:23:18;5.15;;;0.90;;
61250;SDS011;47126;47.508;8.590;2022-10-22T14:25:44;4.32;;;1.40;;
61250;SDS011;47126;47.508;8.590;2022-10-22T14:28:10;5.80;;;1.33;;
61250;SDS011;47126;47.508;8.590;2022-10-22T14:30:36;5.57;;;1.35;;
61250;SDS011;47126;47.508;8.590;2022-10-22T14:33:08;4.00;;;1.52;;
61250;SDS011;47126;47.508;8.590;2022-10-22T14:35:37;4.82;;;1.63;;
61250;SDS011;47126;47.508;8.590;2022-10-22T14:38:03;7.05;;;1.30;;
61250;SDS011;47126;47.508;8.590;2022-10-22T14:40:28;10.88;;;1.95;;
61250;SDS011;47126;47.508;8.590;2022-10-22T14:42:54;11.23;;;1.75;;
61250;SDS011;47126;47.508;8.590;2022-10-22T14:45:21;7.10;;;1.80;;
61250;SDS011;47126;47.508;8.590;2022-10-22T14:47:48;4.90;;;0.90;;
61250;SDS011;47126;47.508;8.590;2022-10-22T14:50:15;7.00;;;1.60;;
61250;SDS011;47126;47.508;8.590;2022-10-22T14:52:41;6.93;;;2.08;;
61250;SDS011;47126;47.508;8.590;2022-10-22T14:55:11;5.53;;;1.65;;
61250;SDS011;47126;47.508;8.590;2022-10-22T14:57:37;3.30;;;1.17;;
61250;SDS011;47126;47.508;8.590;2022-10-22T15:00:04;9.43;;;1.10;;
61250;SDS011;47126;47.508;8.590;2022-10-22T15:02:31;1.42;;;0.80;;
61250;SDS011;47126;47.508;8.590;2022-10-22T15:04:57;5.10;;;0.80;;
61250;SDS011;47126;47.508;8.590;2022-10-22T15:07:23;6.90;;;0.77;;
61250;SDS011;47126;47.508;8.590;2022-10-22T15:09:49;6.70;;;1.05;;
61250;SDS011;47126;47.508;8.590;2022-10-22T15:12:15;8.88;;;1.05;;
61250;SDS011;47126;47.508;8.590;2022-10-22T15:14:41;4.97;;;1.40;;
61250;SDS011;47126;47.508;8.590;2022-10-22T15:17:07;7.20;;;3.65;;
61250;SDS011;47126;47.508;8.590;2022-10-22T15:19:33;8.65;;;0.98;;
61250;SDS011;47126;47.508;8.590;2022-10-22T15:21:59;6.13;;;0.95;;
61250;SDS011;47126;47.508;8.590;2022-10-22T15:24:25;4.97;;;1.00;;
61250;SDS011;47126;47.508;8.590;2022-10-22T15:26:51;9.73;;;1.30;;
61250;SDS011;47126;47.508;8.590;2022-10-22T15:29:18;2.88;;;0.82;;
61250;SDS011;47126;47.508;8.590;2022-10-22T15:31:50;2.20;;;0.90;;
61250;SDS011;47126;47.508;8.590;2022-10-22T15:34:17;3.50;;;0.75;;
61250;SDS011;47126;47.508;8.590;2022-10-22T15:36:44;25.05;;;6.25;;
61250;SDS011;47126;47.508;8.590;2022-10-22T15:39:10;19.38;;;6.40;;
61250;SDS011;47126;47.508;8.590;2022-10-22T15:41:36;23.85;;;8.23;;
61250;SDS011;47126;47.508;8.590;2022-10-22T15:44:02;17.67;;;6.75;;
61250;SDS011;47126;47.508;8.590;2022-10-22T15:46:30;16.13;;;5.70;;
61250;SDS011;47126;47.508;8.590;2022-10-22T15:48:56;20.73;;;8.00;;
61250;SDS011;47126;47.508;8.590;2022-10-22T15:51:22;17.05;;;7.40;;
61250;SDS011;47126;47.508;8.590;2022-10-22T15:53:52;24.85;;;7.22;;
61250;SDS011;47126;47.508;8.590;2022-10-22T15:56:18;13.97;;;5.77;;
61250;SDS011;47126;47.508;8.590;2022-10-22T15:58:44;10.60;;;3.00;;
61250;SDS011;47126;47.508;8.590;2022-10-22T16:01:11;7.82;;;4.03;;
61250;SDS011;47126;47.508;8.590;2022-10-22T16:03:37;6.60;;;2.45;;
61250;SDS011;47126;47.508;8.590;2022-10-22T16:06:04;10.73;;;2.25;;
61250;SDS011;47126;47.508;8.590;2022-10-22T16:08:30;9.48;;;2.15;;
61250;SDS011;47126;47.508;8.590;2022-10-22T16:10:56;9.75;;;2.28;;
61250;SDS011;47126;47.508;8.590;2022-10-22T16:13:22;8.23;;;1.73;;
61250;SDS011;47126;47.508;8.590;2022-10-22T16:15:52;6.13;;;1.65;;
61250;SDS011;47126;47.508;8.590;2022-10-22T16:18:18;15.68;;;2.20;;
61250;SDS011;47126;47.508;8.590;2022-10-22T16:20:45;4.80;;;1.70;;
61250;SDS011;47126;47.508;8.590;2022-10-22T16:23:11;23.75;;;2.20;;
61250;SDS011;47126;47.508;8.590;2022-10-22T16:25:42;10.02;;;2.53;;
61250;SDS011;47126;47.508;8.590;2022-10-22T16:28:08;14.55;;;3.28;;
61250;SDS011;47126;47.508;8.590;2022-10-22T16:30:35;10.02;;;2.00;;